Close sub menu
NASDAQ
NY-Nasdaq Composite 25067,801 -46,64 -0,19% (23:16)
Stijgers 1 dag
Dalers 1 dag
Indices 1 dag
Micron Technology Inc +6,3%
eBay +5,1%
Atlassian Corp +4,9%
Datadog +4,4%
GlobalFoundries +4,4%
Constellation Energy Corp +4,3%
Moderna +4,3%
Fortinet +3,4%
Zoom Communications Inc +3,1%
CrowdStrike Holdings +3,0%
Diamondback Energy +2,8%
Illumina +2,7%
Old Dominion Freight Line -6,6%
Advanced Micro Devices -5,3%
QUALCOMM -4,9%
Align Technology -3,9%
Enphase Energy -3,9%
Intel Corp -3,8%
Charter Communications -3,7%
lululemon athletica -3,4%
Rivian Automotive -3,4%
ASML Holding NV -2,9%
O'Reilly Automotive Inc -2,8%
Monster Beverage Corp -2,5%
AEX* 1.004,98-0,9%
Midkap* 1.040,66+1,3%
AMS Next 20®* 1.646,28-0,5%
FTSE100 10.363,93-0,1%
Dow Jones 48.941,90-1,1%
NASDAQ 25.067,801-0,2%
S&P500 7.200,75-0,4%
S&P Future 7.229,750,0%
BEL20** 5.352,180,0%
CAC 40** 7.976,12-1,7%
DAX 23.991,27-1,2%
* real time    ** slotkoers
NaamKoersVorige+/- %1 wk1 mndDit jaar 1 jaarTijd
Adobe 254,00 250,71 +1,3% +2,2% +3,9% -28,4% -33,1% 22:00
Advanced Micro Devices 341,49 360,55 -5,3% +3,7% +71,5% +68,4% +273,0% 22:00
Airbnb 138,86 141,68 -2,0% -0,8% +13,2% +4,4% +14,2% 22:00
Align Technology 171,90 178,93 -3,9% -5,6% +3,6% +14,6% +1,2% 22:00
Alphabet 379,64 383,31 -1,0% +12,0% +30,0% +22,2% +135,5% 22:00
Alphabet 383,25 385,69 -0,6% +12,0% +29,7% +23,2% +139,1% 22:00
Amazon.com 272,07 268,45 +1,3% +1,7% +27,5% +16,3% +41,1% 22:00
American Electric Power Company 134,64 136,93 -1,7% +1,7% +4,0% +18,7% +27,3% 22:00
Amgen 323,79 329,70 -1,8% -4,3% -6,7% +0,7% +16,2% 22:00
Analog Devices 397,18 397,69 -0,2% -0,5% +24,1% +46,6% +105,3% 22:00
Ansys 374,30 374,30 -- -- -4,7% +11,0% +15,2% 22:00
Apple 276,87 280,25 -1,2% +3,4% +9,6% +3,1% +31,4% 22:00
Applied Materials 391,45 389,10 +0,6% -6,7% +10,0% +51,4% +161,2% 22:00
ASML Holding NV 1.386,20 1.428,18 -2,9% -2,0% +5,0% +33,5% +114,2% 22:00
AstraZeneca PLC 194,94 194,94 0,0% -- +0,3% +112,1% +200,4% 00:00
Atlassian Corp 93,19 88,85 +4,9% +24,2% +28,1% -45,2% -61,2% 22:00
Autodesk 247,54 244,35 +1,3% +2,9% +2,7% -17,5% -10,7% 22:00
Automatic Data Processing 211,32 214,21 -1,3% +9,0% +6,4% -16,7% -28,3% 22:00
Baker Hughes Company 69,01 69,11 -0,1% +0,2% +14,5% +51,7% +91,0% 22:00
Biogen 187,21 187,05 +0,1% +1,4% +1,8% +6,3% +54,7% 22:00
Booking Holdings Inc. 165,57 169,63 -2,4% -5,9% +1,3% -20,8% -16,9% 22:00
Broadcom Inc. 416,54 421,24 -1,1% -0,4% +34,4% +21,7% +113,5% 22:00
Cadence Design Systems 349,65 340,94 +2,5% +2,4% +21,7% +9,1% +13,7% 22:00
Charter Communications 165,32 171,74 -3,7% -4,6% -20,6% -17,7% -55,2% 22:00
Cintas Corp 166,89 169,61 -1,6% -3,6% -1,4% -9,8% -19,1% 22:00
Cisco Systems 92,63 91,87 +0,8% +3,2% +17,9% +19,3% +58,1% 22:00
Cognizant Technology Solutions Corp 51,86 52,43 -1,1% -4,8% -14,4% -36,8% -30,3% 22:00
Comcast Corp 27,08 27,17 -0,3% -1,3% -3,2% -9,1% -19,7% 22:00
Constellation Energy Corp 321,05 307,81 +4,3% -1,8% +10,1% -12,9% +27,9% 22:00
Copart 33,29 33,27 +0,1% +0,6% +0,8% -15,0% -45,0% 22:00
CoStar Group 35,38 34,72 +1,9% -4,7% -12,4% -48,4% -54,7% 22:00
Costco Wholesale Corp 1.012,79 1.011,70 +0,1% 0,0% +1,5% +17,3% +1,3% 22:00
CrowdStrike Holdings 469,24 455,64 +3,0% +1,7% +15,8% -2,8% +5,5% 22:00
CSX Corp 44,72 45,10 -0,8% -0,6% +8,8% +24,4% +60,4% 22:00
Datadog 146,69 140,53 +4,4% +8,6% +18,4% +3,3% +32,2% 22:00
DexCom 60,04 61,34 -2,1% -0,4% -1,7% -7,6% -12,7% 22:00
Diamondback Energy 213,69 207,77 +2,8% +6,7% +9,0% +38,2% +54,1% 22:00
Dollar Tree 94,04 94,68 -0,7% -8,7% -12,9% -23,0% +16,5% 22:00
eBay 109,33 104,04 +5,1% +6,2% +11,7% +19,4% +53,7% 22:00
Electronic Arts 201,82 202,06 -0,1% -0,3% -0,7% -1,1% +39,3% 22:00
Enphase Energy 32,54 33,85 -3,9% -5,3% -11,6% +5,6% -24,0% 22:00
Exelon Corp 46,63 46,50 +0,2% -0,9% -4,9% +6,7% -0,2% 22:00
Fastenal Co 44,88 44,91 -0,1% +0,5% -3,7% +11,9% +11,3% 22:00
Fortinet 89,24 86,29 +3,4% +2,3% +6,3% +8,7% -17,2% 22:00
Gilead Sciences 132,73 131,64 +0,8% +1,0% -6,2% +7,3% +27,5% 22:00
GlobalFoundries 67,75 64,91 +4,4% +5,0% +46,7% +85,9% +84,5% 22:00
Honeywell International 209,59 212,50 -1,4% -0,3% -6,9% +8,9% +0,8% 22:00
IDEXX Laboratories 563,12 567,82 -0,8% +0,3% +0,6% -16,1% +20,5% 22:00
Illumina 139,37 135,77 +2,7% +6,2% +7,2% +3,5% +77,5% 22:00
Intel Corp 95,77 99,61 -3,8% +20,6% +107,4% +169,9% +398,5% 22:00
Intuit 407,05 399,03 +2,0% +0,8% -6,3% -39,8% -36,0% 22:00
Intuitive Surgical 452,19 457,79 -1,2% -5,1% -1,4% -19,2% -11,5% 22:00
JD.com 30,04 29,96 +0,3% -1,0% +3,8% +4,4% -8,8% 22:00
Keurig Dr Pepper 28,87 29,10 -0,8% -0,5% +13,3% +3,9% -14,5% 22:00
KLA Corp 1.713,32 1.725,59 -0,7% -10,8% +13,5% +42,0% +155,1% 22:00
Kraft Heinz Company (The) 22,43 22,48 -0,3% +2,6% +0,9% -7,3% -21,1% 22:00
Lam Research Corp 258,64 256,64 +0,8% -4,1% +15,6% +49,9% +257,8% 22:00
Lucid Group Inc 6,69 6,56 +2,1% +4,7% -31,4% -38,0% -74,1% 22:00
lululemon athletica 128,97 133,58 -3,4% -7,1% -15,9% -35,7% -50,3% 22:00
Marriott International 347,24 355,04 -2,2% -3,3% +6,5% +14,4% +45,5% 22:00
Marvell Technology 163,52 164,92 -0,8% +0,4% +54,5% +94,1% +170,6% 22:00
MercadoLibre 1.813,53 1.850,05 -2,0% +0,8% +7,6% -8,2% -19,4% 22:00
Meta Platforms 610,46 608,75 +0,3% -9,8% +5,1% -7,8% +6,4% 22:00
Microchip Technology 95,28 93,95 +1,4% +5,1% +43,7% +47,4% +104,3% 22:00
Micron Technology Inc 576,36 542,21 +6,3% +9,3% +47,4% +90,0% +597,2% 22:00
Microsoft Corp 413,69 414,20 -0,1% -2,5% +12,1% -14,4% -2,6% 22:00
Moderna 47,30 45,35 +4,3% -10,6% -9,4% +53,8% +67,8% 22:00
Mondelez International 61,38 61,38 0,0% +6,5% +7,6% +14,0% -9,6% 22:00
Monster Beverage Corp 75,23 77,12 -2,5% -1,4% +6,0% +0,6% +29,6% 22:00
Netflix Inc. 91,04 92,06 -1,1% -0,3% -3,7% -1,8% -18,8% 22:00
NVIDIA Corp 198,54 198,35 +0,1% -4,8% +12,9% +6,4% +77,7% 22:00
NXP Semiconductors NV 290,76 295,24 -1,5% +21,0% +51,0% +36,0% +62,4% 22:00
Old Dominion Freight Line 192,23 205,81 -6,6% -6,4% +3,1% +31,3% +36,7% 22:00
O'Reilly Automotive Inc 94,01 96,65 -2,8% +3,8% +4,9% +6,0% +3,0% 22:00
PACCAR 114,37 116,04 -1,4% -8,6% -1,4% +6,0% +29,2% 22:00
Palo Alto Networks Inc 184,56 181,09 +1,9% +1,4% +12,7% -1,7% -2,8% 22:00
Paychex 92,48 93,02 -0,6% +3,6% +2,3% -17,1% -36,6% 22:00
PayPal Holdings 50,42 50,43 -0,1% -0,1% +13,0% -13,6% -22,9% 22:00
PDD Holdings 97,80 99,73 -1,9% +1,7% -2,0% -12,0% -5,9% 22:00
Pepsico 154,60 157,41 -1,8% +1,3% +1,8% +9,7% +17,9% 22:00
QUALCOMM 168,38 177,04 -4,9% +18,8% +39,1% +3,5% +30,9% 22:00
Regeneron Pharmaceuticals 709,21 701,42 +1,1% -6,6% -9,8% -9,1% +18,9% 22:00
Rivian Automotive 14,50 15,02 -3,4% -9,1% +0,5% -23,8% +9,2% 22:00
Ross Stores 226,06 228,84 -1,2% +1,1% +4,0% +27,0% +64,7% 22:00
Seagen 228,89 228,74 -- -- +7,2% +78,1% +78,3% 22:00
SiriusXM Holdings Inc 26,76 27,22 -1,7% +2,4% +16,3% +36,1% +39,6% 22:00
Starbucks Corp 104,97 105,91 -0,9% +7,3% +17,1% +25,8% +29,1% 22:00
Synopsys 497,50 488,84 +1,8% -2,4% +23,2% +4,1% +6,4% 22:00
Tesla 392,57 390,75 +0,5% +3,8% +2,5% -13,1% +39,3% 22:00
Texas Instruments 280,89 280,95 0,0% +1,4% +43,1% +61,9% +77,5% 22:00
T-Mobile US 194,42 196,06 -0,8% +3,3% -4,0% -3,4% -20,6% 22:00
Verisk Analytics 178,69 180,95 -1,3% +1,9% -1,4% -19,1% -38,6% 22:00
Vertex Pharmaceuticals 429,85 424,02 +1,4% -1,5% -5,2% -6,5% -15,0% 22:00
Walgreens Boots Alliance 11,98 11,98 -- -- +0,5% +28,4% +40,6% 22:00
Warner Bros Discovery 26,97 26,97 0,0% -0,4% -1,9% -6,4% +219,9% 22:00
Workday 127,89 126,96 +0,7% +6,0% -1,6% -40,9% -48,5% 22:00
Xcel Energy 81,17 82,56 -1,7% +4,3% +3,6% +11,8% +17,3% 22:00
Zoom Communications Inc 106,63 103,45 +3,1% +12,4% +28,2% +19,9% +33,9% 22:00
Zscaler 142,20 139,78 +1,7% +3,2% +2,3% -37,9% -38,4% 22:00
Powered by

Schakel browser notificaties in

Schakel browser notificaties in om meldingen te ontvangen op dit apparaat.

Browser notificaties inschakelen

U heeft browser notificaties voor fd.nl eerder geweigerd. Ga naar browser instellingen en sta browser notificaties toe voor fd.nl. De precieze handelingen zijn afhankelijk van uw browser.

U volgt een onderwerp

Wanneer deze zoekterm in een artikel voorkomt, zult u deze terugvinden in Mijn nieuws onder ‘Eurobonds’.

Wilt u via de FD App meldingen ontvangen voor dit onderwerp?

Wilt u via de FD App meldingen ontvangen voor dit onderwerp?

Ons privacy statement is van toepassing.

Meldingen

Wanneer deze zoekterm in een artikel voorkomt, zult u deze terugvinden in Mijn nieuws onder ‘Eurobonds’.

Wilt u via de FD App meldingen ontvangen voor dit onderwerp?

Wilt u via de FD App meldingen ontvangen voor dit onderwerp?